Time,TemperatureF,DewpointF,PressureIn,WindDirection,WindDirectionDegrees,WindSpeedMPH,WindSpeedGustMPH,Humidity,HourlyPrecipIn,Conditions,Clouds,dailyrainin,SoftwareType,DateUTC
2013-04-18 00:00:00,41.1,40.8,29.85,NE,51,11.3,-999.0,98,0.01,,,0.31,SSEC-RIG,2013-04-18 05:00:00,
2013-04-18 00:05:00,41.1,40.8,29.84,NE,52,12.5,-999.0,98,0.01,,,0.32,SSEC-RIG,2013-04-18 05:05:00,
2013-04-18 00:10:00,41.1,40.8,29.84,ENE,62,12.5,-999.0,98,0.01,,,0.33,SSEC-RIG,2013-04-18 05:10:00,
2013-04-18 00:15:00,41.3,40.9,29.83,ENE,64,11.6,-999.0,98,0.02,,,0.35,SSEC-RIG,2013-04-18 05:15:00,
2013-04-18 00:25:00,41.4,41.1,29.82,ENE,64,13.5,17.5,98,0.01,,,0.38,SSEC-RIG,2013-04-18 05:25:00,
2013-04-18 00:30:00,41.5,41.1,29.82,ENE,64,11.5,-999.0,98,0.02,,,0.40,SSEC-RIG,2013-04-18 05:30:00,
2013-04-18 00:35:00,41.5,41.1,29.81,ENE,63,11.3,-999.0,98,0.00,,,0.40,SSEC-RIG,2013-04-18 05:35:00,
2013-04-18 00:40:00,41.6,41.2,29.81,ENE,65,13.5,17.2,97,0.01,,,0.41,SSEC-RIG,2013-04-18 05:40:00,
2013-04-18 00:45:00,41.7,41.3,29.81,ENE,66,11.1,-999.0,97,0.00,,,0.41,SSEC-RIG,2013-04-18 05:45:00,
2013-04-18 00:50:00,41.8,41.3,29.81,ENE,65,9.4,-999.0,97,0.00,,,0.41,SSEC-RIG,2013-04-18 05:50:00,
2013-04-18 00:55:00,42.0,41.5,29.81,East,80,9.1,-999.0,97,0.01,,,0.42,SSEC-RIG,2013-04-18 05:55:00,
2013-04-18 01:00:00,42.3,41.8,29.80,East,82,10.7,16.1,97,0.00,,,0.42,SSEC-RIG,2013-04-18 06:00:00,
2013-04-18 01:05:00,42.5,42.0,29.80,East,98,9.5,-999.0,97,0.00,,,0.42,SSEC-RIG,2013-04-18 06:05:00,
2013-04-18 01:10:00,42.5,42.0,29.79,East,99,10.1,-999.0,97,0.00,,,0.42,SSEC-RIG,2013-04-18 06:10:00,
2013-04-18 01:15:00,41.9,41.4,29.79,ESE,104,11.7,16.3,97,0.01,,,0.43,SSEC-RIG,2013-04-18 06:15:00,
2013-04-18 01:20:00,41.5,41.1,29.77,ESE,110,15.1,18.4,97,0.00,,,0.43,SSEC-RIG,2013-04-18 06:20:00,
2013-04-18 01:25:00,41.4,41.0,29.75,ESE,117,18.5,22.8,97,0.00,,,0.43,SSEC-RIG,2013-04-18 06:25:00,
2013-04-18 01:30:00,41.3,41.0,29.75,SE,124,17.6,20.6,97,0.00,,,0.43,SSEC-RIG,2013-04-18 06:30:00,
2013-04-18 01:35:00,41.3,41.0,29.74,SE,130,18.9,22.5,98,0.00,,,0.43,SSEC-RIG,2013-04-18 06:35:00,
2013-04-18 01:40:00,41.3,41.0,29.73,SE,135,20.2,23.2,98,0.01,,,0.44,SSEC-RIG,2013-04-18 06:40:00,
2013-04-18 01:45:00,41.3,41.0,29.72,SE,133,21.4,24.2,98,0.01,,,0.45,SSEC-RIG,2013-04-18 06:45:00,
2013-04-18 01:50:00,41.3,41.0,29.71,SE,130,22.5,26.8,98,0.00,,,0.45,SSEC-RIG,2013-04-18 06:50:00,
2013-04-18 01:55:00,41.3,41.0,29.70,SE,131,23.0,26.5,98,0.01,,,0.46,SSEC-RIG,2013-04-18 06:55:00,
2013-04-18 02:00:00,41.2,41.0,29.69,SE,132,21.4,25.8,98,0.00,,,0.46,SSEC-RIG,2013-04-18 07:00:00,
2013-04-18 02:05:00,41.3,41.0,29.69,SE,134,22.4,27.4,98,0.01,,,0.47,SSEC-RIG,2013-04-18 07:05:00,
2013-04-18 02:10:00,41.3,41.1,29.68,SE,136,22.1,27.2,98,0.00,,,0.47,SSEC-RIG,2013-04-18 07:10:00,
2013-04-18 02:15:00,41.4,41.2,29.67,SE,136,22.0,25.6,98,0.00,,,0.47,SSEC-RIG,2013-04-18 07:15:00,
2013-04-18 02:20:00,41.5,41.3,29.67,SE,136,21.3,27.3,98,0.00,,,0.47,SSEC-RIG,2013-04-18 07:20:00,
2013-04-18 02:25:00,41.6,41.4,29.66,SE,139,17.8,24.2,98,0.00,,,0.47,SSEC-RIG,2013-04-18 07:25:00,
2013-04-18 02:30:00,41.6,41.4,29.66,SE,142,17.8,23.2,98,0.00,,,0.47,SSEC-RIG,2013-04-18 07:30:00,
2013-04-18 02:35:00,41.7,41.5,29.66,SE,141,17.8,24.1,98,0.00,,,0.47,SSEC-RIG,2013-04-18 07:35:00,
2013-04-18 02:40:00,41.7,41.6,29.65,SE,144,14.7,21.8,98,0.00,,,0.47,SSEC-RIG,2013-04-18 07:40:00,
2013-04-18 02:45:00,41.8,41.6,29.64,SE,141,17.0,21.9,98,0.00,,,0.47,SSEC-RIG,2013-04-18 07:45:00,
2013-04-18 02:50:00,41.9,41.7,29.63,SE,138,19.3,23.0,98,0.01,,,0.48,SSEC-RIG,2013-04-18 07:50:00,
2013-04-18 02:55:00,42.0,41.8,29.62,SE,141,18.3,22.5,98,0.00,,,0.48,SSEC-RIG,2013-04-18 07:55:00,
2013-04-18 03:00:00,42.1,42.0,29.62,SE,144,18.5,22.8,98,0.01,,,0.49,SSEC-RIG,2013-04-18 08:00:00,
2013-04-18 03:05:00,42.2,42.1,29.62,SSE,148,17.8,24.4,98,0.00,,,0.49,SSEC-RIG,2013-04-18 08:05:00,
2013-04-18 03:10:00,42.3,42.2,29.61,SE,144,22.3,26.9,99,0.01,,,0.50,SSEC-RIG,2013-04-18 08:10:00,
2013-04-18 03:15:00,42.3,42.2,29.60,SE,145,20.4,25.7,99,0.01,,,0.51,SSEC-RIG,2013-04-18 08:15:00,
2013-04-18 03:20:00,42.6,42.5,29.61,SSE,151,18.4,24.6,99,0.00,,,0.51,SSEC-RIG,2013-04-18 08:20:00,
2013-04-18 03:25:00,42.7,42.6,29.60,SSE,147,19.8,28.8,99,0.01,,,0.52,SSEC-RIG,2013-04-18 08:25:00,
2013-04-18 03:30:00,42.8,42.7,29.60,SSE,150,18.4,23.6,99,0.00,,,0.52,SSEC-RIG,2013-04-18 08:30:00,
2013-04-18 03:40:00,43.0,42.9,29.61,SSE,160,22.8,27.4,99,0.01,,,0.53,SSEC-RIG,2013-04-18 08:40:00,
2013-04-18 03:50:00,43.4,43.4,29.61,SSE,159,23.1,28.8,99,0.00,,,0.53,SSEC-RIG,2013-04-18 08:50:00,
2013-04-18 03:55:00,43.8,43.7,29.62,SSE,163,19.2,23.6,99,0.00,,,0.53,SSEC-RIG,2013-04-18 08:55:00,
2013-04-18 04:00:00,44.1,44.0,29.61,SSE,157,15.5,21.5,99,0.00,,,0.53,SSEC-RIG,2013-04-18 09:00:00,
2013-04-18 04:05:00,44.2,44.1,29.61,SSE,156,13.6,19.4,99,0.01,,,0.54,SSEC-RIG,2013-04-18 09:05:00,
2013-04-18 04:10:00,44.4,44.4,29.61,SSE,155,12.3,18.8,99,0.00,,,0.54,SSEC-RIG,2013-04-18 09:10:00,
2013-04-18 04:15:00,44.4,44.4,29.60,SSE,154,10.0,-999.0,99,0.00,,,0.54,SSEC-RIG,2013-04-18 09:15:00,
2013-04-18 04:20:00,44.3,44.3,29.59,SSE,150,12.8,18.6,99,0.00,,,0.54,SSEC-RIG,2013-04-18 09:20:00,
2013-04-18 04:25:00,44.2,44.2,29.59,SSE,158,10.9,-999.0,99,0.00,,,0.54,SSEC-RIG,2013-04-18 09:25:00,
2013-04-18 04:30:00,44.3,44.3,29.60,SSE,162,8.5,-999.0,99,0.00,,,0.54,SSEC-RIG,2013-04-18 09:30:00,
2013-04-18 04:35:00,44.5,44.5,29.61,SSE,162,6.4,-999.0,99,0.00,,,0.54,SSEC-RIG,2013-04-18 09:35:00,
2013-04-18 04:40:00,44.6,44.6,29.61,SSE,160,2.3,-999.0,99,0.00,,,0.54,SSEC-RIG,2013-04-18 09:40:00,
2013-04-18 04:45:00,44.8,44.8,29.62,West,279,2.2,-999.0,99,0.00,,,0.54,SSEC-RIG,2013-04-18 09:45:00,
2013-04-18 04:55:00,44.9,45.0,29.62,North,10,5.4,-999.0,99,0.00,,,0.54,SSEC-RIG,2013-04-18 09:55:00,
2013-04-18 05:00:00,44.5,44.5,29.61,NE,52,5.3,-999.0,99,0.00,,,0.54,SSEC-RIG,2013-04-18 10:00:00,
2013-04-18 05:05:00,44.5,44.6,29.60,ENE,77,6.1,-999.0,99,0.01,,,0.55,SSEC-RIG,2013-04-18 10:05:00,
2013-04-18 05:10:00,44.4,44.4,29.58,East,89,9.2,-999.0,99,0.00,,,0.55,SSEC-RIG,2013-04-18 10:10:00,
2013-04-18 05:15:00,44.8,44.9,29.57,East,91,12.0,-999.0,99,0.00,,,0.55,SSEC-RIG,2013-04-18 10:15:00,
2013-04-18 05:20:00,45.4,45.4,29.56,East,95,10.4,-999.0,99,0.00,,,0.55,SSEC-RIG,2013-04-18 10:20:00,
2013-04-18 05:30:00,46.4,46.5,29.53,East,98,13.1,17.7,99,0.00,,,0.55,SSEC-RIG,2013-04-18 10:30:00,
2013-04-18 05:35:00,46.8,46.8,29.52,ESE,102,14.3,17.4,99,0.00,,,0.55,SSEC-RIG,2013-04-18 10:35:00,
2013-04-18 05:40:00,46.6,46.7,29.51,ESE,105,14.0,17.5,99,0.00,,,0.55,SSEC-RIG,2013-04-18 10:40:00,
2013-04-18 05:45:00,46.4,46.5,29.52,ESE,109,11.3,-999.0,99,0.00,,,0.55,SSEC-RIG,2013-04-18 10:45:00,
2013-04-18 05:50:00,46.2,46.3,29.52,ESE,108,6.6,-999.0,99,0.00,,,0.55,SSEC-RIG,2013-04-18 10:50:00,
2013-04-18 05:55:00,46.1,46.2,29.53,ESE,117,8.3,-999.0,99,0.00,,,0.55,SSEC-RIG,2013-04-18 10:55:00,
2013-04-18 06:00:00,46.0,46.1,29.52,ESE,119,10.4,-999.0,99,0.00,,,0.55,SSEC-RIG,2013-04-18 11:00:00,
2013-04-18 06:10:00,46.4,46.5,29.51,East,83,8.6,-999.0,99,0.01,,,0.56,SSEC-RIG,2013-04-18 11:10:00,
2013-04-18 06:15:00,46.0,46.1,29.53,NNE,20,6.8,-999.0,99,0.00,,,0.56,SSEC-RIG,2013-04-18 11:15:00,
2013-04-18 06:20:00,44.8,44.9,29.56,North,352,11.1,-999.0,99,0.00,,,0.56,SSEC-RIG,2013-04-18 11:20:00,
2013-04-18 06:30:00,44.4,44.6,29.58,North,356,13.5,-999.0,99,0.00,,,0.56,SSEC-RIG,2013-04-18 11:30:00,
2013-04-18 06:35:00,44.1,44.2,29.59,North,351,15.8,18.2,99,0.00,,,0.56,SSEC-RIG,2013-04-18 11:35:00,
2013-04-18 06:40:00,43.6,43.7,29.58,North,360,14.2,17.0,99,0.01,,,0.57,SSEC-RIG,2013-04-18 11:40:00,
2013-04-18 06:45:00,43.5,43.6,29.58,North,356,14.7,16.6,99,0.01,,,0.58,SSEC-RIG,2013-04-18 11:45:00,
2013-04-18 06:50:00,43.4,43.6,29.59,North,354,13.6,-999.0,99,0.00,,,0.58,SSEC-RIG,2013-04-18 11:50:00,
2013-04-18 06:55:00,43.4,43.5,29.59,North,356,13.4,-999.0,99,0.02,,,0.60,SSEC-RIG,2013-04-18 11:55:00,
2013-04-18 07:00:00,43.2,43.3,29.58,North,358,13.6,-999.0,99,0.01,,,0.61,SSEC-RIG,2013-04-18 12:00:00,
2013-04-18 07:05:00,43.2,43.3,29.58,North,11,11.9,-999.0,99,0.01,,,0.62,SSEC-RIG,2013-04-18 12:05:00,
2013-04-18 07:10:00,43.2,43.4,29.57,NNE,15,11.5,-999.0,99,0.01,,,0.63,SSEC-RIG,2013-04-18 12:10:00,
2013-04-18 07:15:00,43.4,43.5,29.57,NNE,23,13.5,-999.0,99,0.00,,,0.63,SSEC-RIG,2013-04-18 12:15:00,
2013-04-18 07:20:00,43.5,43.6,29.56,NNE,31,13.3,-999.0,99,0.01,,,0.64,SSEC-RIG,2013-04-18 12:20:00,
2013-04-18 07:25:00,43.6,43.7,29.57,NE,37,9.8,-999.0,99,0.00,,,0.64,SSEC-RIG,2013-04-18 12:25:00,
2013-04-18 07:30:00,43.7,43.8,29.58,NNE,27,7.4,-999.0,99,0.01,,,0.65,SSEC-RIG,2013-04-18 12:30:00,
2013-04-18 07:40:00,43.8,44.0,29.58,NNE,26,7.4,-999.0,99,0.01,,,0.66,SSEC-RIG,2013-04-18 12:40:00,
2013-04-18 07:45:00,43.8,43.9,29.57,NNE,25,7.4,-999.0,99,0.01,,,0.67,SSEC-RIG,2013-04-18 12:45:00,
2013-04-18 07:50:00,43.8,43.9,29.58,NNE,21,6.4,-999.0,99,0.01,,,0.68,SSEC-RIG,2013-04-18 12:50:00,
2013-04-18 07:55:00,43.7,43.8,29.58,NNE,15,4.6,-999.0,99,0.00,,,0.68,SSEC-RIG,2013-04-18 12:55:00,
2013-04-18 08:00:00,43.7,43.9,29.58,NNE,20,4.3,-999.0,100,0.01,,,0.69,SSEC-RIG,2013-04-18 13:00:00,
2013-04-18 08:05:00,43.9,44.0,29.58,NNE,21,5.7,-999.0,100,0.01,,,0.70,SSEC-RIG,2013-04-18 13:05:00,
2013-04-18 08:10:00,43.8,43.9,29.58,NNE,18,5.0,-999.0,100,0.00,,,0.70,SSEC-RIG,2013-04-18 13:10:00,
2013-04-18 08:15:00,43.5,43.7,29.58,North,3,6.5,-999.0,100,0.00,,,0.70,SSEC-RIG,2013-04-18 13:15:00,
2013-04-18 08:20:00,43.4,43.6,29.58,North,359,7.8,-999.0,100,0.01,,,0.71,SSEC-RIG,2013-04-18 13:20:00,
2013-04-18 08:25:00,43.2,43.4,29.58,North,355,9.1,-999.0,100,0.00,,,0.71,SSEC-RIG,2013-04-18 13:25:00,
2013-04-18 08:30:00,43.1,43.2,29.58,North,354,9.4,-999.0,100,0.00,,,0.71,SSEC-RIG,2013-04-18 13:30:00,
2013-04-18 08:35:00,42.7,42.9,29.57,North,354,10.1,-999.0,99,0.00,,,0.71,SSEC-RIG,2013-04-18 13:35:00,
2013-04-18 08:40:00,42.4,42.5,29.57,North,356,12.1,-999.0,99,0.00,,,0.71,SSEC-RIG,2013-04-18 13:40:00,
2013-04-18 08:45:00,42.2,42.3,29.56,North,358,12.1,-999.0,99,0.00,,,0.71,SSEC-RIG,2013-04-18 13:45:00,
2013-04-18 08:50:00,42.0,42.1,29.55,North,357,13.1,-999.0,99,0.00,,,0.71,SSEC-RIG,2013-04-18 13:50:00,
2013-04-18 08:55:00,41.8,41.9,29.56,North,357,14.3,16.3,99,0.00,,,0.71,SSEC-RIG,2013-04-18 13:55:00,
2013-04-18 09:00:00,41.8,42.0,29.56,North,5,14.2,-999.0,99,0.01,,,0.72,SSEC-RIG,2013-04-18 14:00:00,
2013-04-18 09:05:00,41.8,42.0,29.55,North,3,13.9,-999.0,100,0.00,,,0.72,SSEC-RIG,2013-04-18 14:05:00,
2013-04-18 09:10:00,41.1,41.3,29.53,North,2,14.9,16.7,99,0.00,,,0.72,SSEC-RIG,2013-04-18 14:10:00,
2013-04-18 09:15:00,40.8,41.0,29.53,North,3,15.7,17.5,99,0.00,,,0.72,SSEC-RIG,2013-04-18 14:15:00,
2013-04-18 09:20:00,40.7,40.9,29.53,North,1,14.2,17.5,99,0.00,,,0.72,SSEC-RIG,2013-04-18 14:20:00,
2013-04-18 09:25:00,40.6,40.7,29.54,North,4,13.6,-999.0,99,0.00,,,0.72,SSEC-RIG,2013-04-18 14:25:00,
2013-04-18 09:30:00,40.5,40.6,29.53,North,6,12.6,-999.0,99,0.00,,,0.72,SSEC-RIG,2013-04-18 14:30:00,
2013-04-18 09:35:00,40.6,40.7,29.55,North,356,9.7,-999.0,99,0.00,,,0.72,SSEC-RIG,2013-04-18 14:35:00,
2013-04-18 09:45:00,40.6,40.8,29.57,North,354,10.3,-999.0,99,0.00,,,0.72,SSEC-RIG,2013-04-18 14:45:00,
2013-04-18 09:50:00,40.7,40.9,29.57,North,9,9.9,-999.0,99,0.00,,,0.72,SSEC-RIG,2013-04-18 14:50:00,
2013-04-18 09:57:00,40.6,40.8,29.55,NNE,25,11.7,-999.0,99,0.00,,,0.72,SSEC-RIG,2013-04-18 14:57:00,
2013-04-18 10:05:00,40.4,40.6,29.53,NNE,33,11.7,-999.0,99,0.00,,,0.72,SSEC-RIG,2013-04-18 15:05:00,
2013-04-18 10:10:00,40.5,40.7,29.55,NNE,27,7.7,-999.0,99,0.00,,,0.72,SSEC-RIG,2013-04-18 15:10:00,
2013-04-18 10:15:00,40.6,40.8,29.55,NNE,24,7.9,-999.0,99,0.00,,,0.72,SSEC-RIG,2013-04-18 15:15:00,
2013-04-18 10:20:00,40.7,40.9,29.54,NNE,27,7.4,-999.0,99,0.00,,,0.72,SSEC-RIG,2013-04-18 15:20:00,
2013-04-18 10:25:00,41.0,41.1,29.54,NNE,29,6.2,-999.0,99,0.00,,,0.72,SSEC-RIG,2013-04-18 15:25:00,
2013-04-18 10:30:00,41.0,41.1,29.54,NNE,25,5.9,-999.0,99,0.00,,,0.72,SSEC-RIG,2013-04-18 15:30:00,
2013-04-18 10:35:00,41.1,41.2,29.54,NNE,23,5.1,-999.0,99,0.00,,,0.72,SSEC-RIG,2013-04-18 15:35:00,
2013-04-18 10:45:00,41.1,41.2,29.53,NNE,23,6.0,-999.0,99,0.00,,,0.72,SSEC-RIG,2013-04-18 15:45:00,
2013-04-18 10:50:00,41.2,41.2,29.53,NNE,21,5.1,-999.0,99,0.00,,,0.72,SSEC-RIG,2013-04-18 15:50:00,
2013-04-18 10:55:00,41.6,41.6,29.53,NNE,17,3.5,-999.0,99,0.00,,,0.72,SSEC-RIG,2013-04-18 15:55:00,
2013-04-18 11:00:00,41.2,41.2,29.52,NNE,19,5.1,-999.0,99,0.00,,,0.72,SSEC-RIG,2013-04-18 16:00:00,
2013-04-18 11:05:00,41.4,41.4,29.52,NNE,27,5.4,-999.0,99,0.00,,,0.72,SSEC-RIG,2013-04-18 16:05:00,
2013-04-18 11:10:00,41.7,41.7,29.52,NNE,20,5.1,-999.0,99,0.00,,,0.72,SSEC-RIG,2013-04-18 16:10:00,
2013-04-18 11:15:00,41.6,41.6,29.53,NNE,19,5.3,-999.0,99,0.00,,,0.72,SSEC-RIG,2013-04-18 16:15:00,
2013-04-18 11:20:00,41.7,41.7,29.52,NNE,25,5.0,-999.0,99,0.00,,,0.72,SSEC-RIG,2013-04-18 16:20:00,
2013-04-18 11:25:00,42.2,42.2,29.52,NE,35,2.8,-999.0,99,0.00,,,0.72,SSEC-RIG,2013-04-18 16:25:00,
2013-04-18 11:30:00,42.3,42.3,29.53,NE,34,3.0,-999.0,99,0.00,,,0.72,SSEC-RIG,2013-04-18 16:30:00,
2013-04-18 11:35:00,42.7,42.7,29.54,NE,36,1.5,-999.0,99,0.00,,,0.72,SSEC-RIG,2013-04-18 16:35:00,
2013-04-18 11:40:00,43.3,43.2,29.54,ESE,111,1.3,-999.0,99,0.00,,,0.72,SSEC-RIG,2013-04-18 16:40:00,
2013-04-18 11:45:00,43.1,42.8,29.55,SE,146,2.4,-999.0,98,0.00,,,0.72,SSEC-RIG,2013-04-18 16:45:00,
2013-04-18 11:50:00,43.5,43.0,29.55,South,190,1.2,-999.0,97,0.00,,,0.72,SSEC-RIG,2013-04-18 16:50:00,
2013-04-18 12:00:00,44.0,43.1,29.52,ESE,118,3.3,-999.0,96,0.00,,,0.72,SSEC-RIG,2013-04-18 17:00:00,
2013-04-18 12:05:00,44.6,43.7,29.52,SE,130,2.9,-999.0,95,0.00,,,0.72,SSEC-RIG,2013-04-18 17:05:00,
2013-04-18 12:10:00,44.3,43.5,29.52,ESE,122,5.8,-999.0,96,0.00,,,0.72,SSEC-RIG,2013-04-18 17:10:00,
2013-04-18 12:15:00,44.6,43.9,29.51,SE,124,4.2,-999.0,96,0.00,,,0.72,SSEC-RIG,2013-04-18 17:15:00,
2013-04-18 12:20:00,44.7,43.9,29.51,SE,128,3.7,-999.0,96,0.00,,,0.72,SSEC-RIG,2013-04-18 17:20:00,
2013-04-18 12:25:00,44.6,43.7,29.51,ESE,118,2.6,-999.0,96,0.00,,,0.72,SSEC-RIG,2013-04-18 17:25:00,
2013-04-18 12:30:00,44.7,43.9,29.51,SE,136,3.4,-999.0,96,0.00,,,0.72,SSEC-RIG,2013-04-18 17:30:00,
2013-04-18 12:35:00,44.8,44.1,29.50,ESE,114,5.4,-999.0,96,0.00,,,0.72,SSEC-RIG,2013-04-18 17:35:00,
2013-04-18 12:40:00,45.1,44.2,29.49,ESE,110,6.2,-999.0,96,0.00,,,0.72,SSEC-RIG,2013-04-18 17:40:00,
2013-04-18 12:45:00,45.6,44.8,29.46,ESE,103,8.4,-999.0,96,0.00,,,0.72,SSEC-RIG,2013-04-18 17:45:00,
2013-04-18 12:50:00,46.0,45.0,29.45,East,93,7.0,-999.0,95,0.00,,,0.72,SSEC-RIG,2013-04-18 17:50:00,
2013-04-18 12:55:00,45.9,44.8,29.47,ENE,59,2.5,-999.0,95,0.00,,,0.72,SSEC-RIG,2013-04-18 17:55:00,
2013-04-18 13:00:00,46.7,45.3,29.49,SSW,213,1.8,-999.0,94,0.00,,,0.72,SSEC-RIG,2013-04-18 18:00:00,
2013-04-18 13:10:00,46.9,45.3,29.49,SE,124,1.5,-999.0,93,0.00,,,0.72,SSEC-RIG,2013-04-18 18:10:00,
2013-04-18 13:15:00,47.2,45.5,29.50,SSW,199,2.3,-999.0,93,0.00,,,0.72,SSEC-RIG,2013-04-18 18:15:00,
2013-04-18 13:20:00,47.3,45.4,29.50,SE,133,3.1,-999.0,92,0.00,,,0.72,SSEC-RIG,2013-04-18 18:20:00,
2013-04-18 13:25:00,47.2,45.3,29.48,East,81,6.0,-999.0,92,0.00,,,0.72,SSEC-RIG,2013-04-18 18:25:00,
2013-04-18 13:30:00,46.5,44.9,29.47,NE,44,6.2,-999.0,93,0.00,,,0.72,SSEC-RIG,2013-04-18 18:30:00,
2013-04-18 13:35:00,46.0,44.7,29.47,ENE,73,6.1,-999.0,94,0.00,,,0.72,SSEC-RIG,2013-04-18 18:35:00,
2013-04-18 13:45:00,46.1,45.0,29.47,ENE,73,5.3,-999.0,95,0.00,,,0.72,SSEC-RIG,2013-04-18 18:45:00,
2013-04-18 13:50:00,46.4,45.3,29.47,East,83,3.9,-999.0,95,0.00,,,0.72,SSEC-RIG,2013-04-18 18:50:00,
2013-04-18 13:55:00,47.2,45.8,29.47,ESE,113,2.4,-999.0,94,0.00,,,0.72,SSEC-RIG,2013-04-18 18:55:00,
2013-04-18 14:00:00,47.5,45.8,29.46,ESE,105,2.3,-999.0,93,0.00,,,0.72,SSEC-RIG,2013-04-18 19:00:00,
2013-04-18 14:05:00,47.5,45.9,29.46,ESE,114,1.7,-999.0,93,0.00,,,0.72,SSEC-RIG,2013-04-18 19:05:00,
2013-04-18 14:15:00,48.0,46.7,29.45,East,95,4.3,-999.0,94,0.00,,,0.72,SSEC-RIG,2013-04-18 19:15:00,
2013-04-18 14:20:00,48.3,46.9,29.44,East,84,4.7,-999.0,94,0.00,,,0.72,SSEC-RIG,2013-04-18 19:20:00,
2013-04-18 14:30:00,48.1,47.1,29.43,East,97,6.1,-999.0,95,0.00,,,0.72,SSEC-RIG,2013-04-18 19:30:00,
2013-04-18 14:35:00,48.1,47.3,29.42,East,88,6.6,-999.0,96,0.00,,,0.72,SSEC-RIG,2013-04-18 19:35:00,
2013-04-18 14:40:00,48.5,47.6,29.43,ESE,119,3.6,-999.0,96,0.00,,,0.72,SSEC-RIG,2013-04-18 19:40:00,
2013-04-18 14:45:00,48.1,47.3,29.44,ESE,108,6.6,-999.0,96,0.00,,,0.72,SSEC-RIG,2013-04-18 19:45:00,
2013-04-18 14:55:00,48.4,47.8,29.44,East,95,6.5,-999.0,96,0.00,,,0.72,SSEC-RIG,2013-04-18 19:55:00,
2013-04-18 15:00:00,48.4,47.8,29.45,ESE,114,5.9,-999.0,97,0.00,,,0.72,SSEC-RIG,2013-04-18 20:00:00,
2013-04-18 15:05:00,48.4,47.8,29.45,ESE,116,5.7,-999.0,97,0.00,,,0.72,SSEC-RIG,2013-04-18 20:05:00,
2013-04-18 15:10:00,48.4,47.9,29.44,ESE,108,7.4,-999.0,97,0.00,,,0.72,SSEC-RIG,2013-04-18 20:10:00,
2013-04-18 15:20:00,48.6,48.2,29.44,ESE,106,7.4,-999.0,97,0.00,,,0.72,SSEC-RIG,2013-04-18 20:20:00,
2013-04-18 15:25:00,48.6,48.2,29.44,ESE,116,7.4,-999.0,97,0.00,,,0.72,SSEC-RIG,2013-04-18 20:25:00,
2013-04-18 15:30:00,49.0,48.7,29.42,East,98,9.2,-999.0,98,0.00,,,0.72,SSEC-RIG,2013-04-18 20:30:00,
2013-04-18 15:35:00,48.8,48.6,29.42,East,101,7.9,-999.0,98,0.00,,,0.72,SSEC-RIG,2013-04-18 20:35:00,
2013-04-18 15:40:00,48.9,48.6,29.41,ESE,109,7.6,-999.0,98,0.00,,,0.72,SSEC-RIG,2013-04-18 20:40:00,
2013-04-18 15:45:00,48.8,48.6,29.41,ESE,109,7.9,-999.0,98,0.00,,,0.72,SSEC-RIG,2013-04-18 20:45:00,
2013-04-18 15:50:00,49.1,49.0,29.39,ESE,104,7.7,-999.0,98,0.00,,,0.72,SSEC-RIG,2013-04-18 20:50:00,
2013-04-18 15:55:00,49.3,49.2,29.38,East,99,9.5,-999.0,99,0.00,,,0.72,SSEC-RIG,2013-04-18 20:55:00,
2013-04-18 16:00:00,49.1,49.1,29.39,ESE,109,10.4,-999.0,99,0.00,,,0.72,SSEC-RIG,2013-04-18 21:00:00,
2013-04-18 16:05:00,49.3,49.2,29.39,ESE,111,9.3,-999.0,99,0.00,,,0.72,SSEC-RIG,2013-04-18 21:05:00,
2013-04-18 16:10:00,49.5,49.4,29.38,ESE,109,10.0,-999.0,99,0.00,,,0.72,SSEC-RIG,2013-04-18 21:10:00,
2013-04-18 16:15:00,49.5,49.5,29.38,ESE,112,11.9,-999.0,99,0.00,,,0.72,SSEC-RIG,2013-04-18 21:15:00,
2013-04-18 16:20:00,49.6,49.6,29.37,ESE,111,12.8,-999.0,99,0.00,,,0.72,SSEC-RIG,2013-04-18 21:20:00,
2013-04-18 16:25:00,49.5,49.6,29.37,ESE,119,13.2,-999.0,99,0.00,,,0.72,SSEC-RIG,2013-04-18 21:25:00,
2013-04-18 16:30:00,49.7,49.7,29.36,ESE,118,14.4,16.2,99,0.00,,,0.72,SSEC-RIG,2013-04-18 21:30:00,
2013-04-18 16:35:00,49.8,49.9,29.36,ESE,123,15.4,17.5,99,0.00,,,0.72,SSEC-RIG,2013-04-18 21:35:00,
2013-04-18 16:40:00,50.1,50.1,29.34,ESE,119,17.4,19.4,99,0.00,,,0.72,SSEC-RIG,2013-04-18 21:40:00,
2013-04-18 16:45:00,50.4,50.5,29.35,SE,124,14.4,19.2,99,0.00,,,0.72,SSEC-RIG,2013-04-18 21:45:00,
2013-04-18 16:50:00,50.7,50.8,29.35,SE,126,15.0,17.0,99,0.00,,,0.72,SSEC-RIG,2013-04-18 21:50:00,
2013-04-18 16:55:00,51.1,51.2,29.34,SE,127,16.1,17.8,99,0.00,,,0.72,SSEC-RIG,2013-04-18 21:55:00,
2013-04-18 17:00:00,51.4,51.5,29.34,SE,130,15.9,17.7,99,0.00,,,0.72,SSEC-RIG,2013-04-18 22:00:00,
2013-04-18 17:05:00,51.7,51.8,29.33,SE,134,15.6,17.5,99,0.00,,,0.72,SSEC-RIG,2013-04-18 22:05:00,
2013-04-18 17:10:00,52.1,52.2,29.33,SE,137,16.5,18.1,99,0.00,,,0.72,SSEC-RIG,2013-04-18 22:10:00,
2013-04-18 17:15:00,53.0,53.1,29.33,SE,142,17.5,20.6,99,0.00,,,0.72,SSEC-RIG,2013-04-18 22:15:00,
2013-04-18 17:25:00,54.1,54.3,29.33,SSE,156,16.7,21.0,99,0.00,,,0.73,SSEC-RIG,2013-04-18 22:25:00,
2013-04-18 17:30:00,54.7,54.9,29.32,SSE,160,18.1,20.9,99,0.00,,,0.73,SSEC-RIG,2013-04-18 22:30:00,
2013-04-18 17:35:00,55.3,55.5,29.32,SSE,164,18.0,21.4,99,0.01,,,0.74,SSEC-RIG,2013-04-18 22:35:00,
2013-04-18 17:40:00,55.9,56.0,29.31,South,169,17.3,22.5,99,0.00,,,0.74,SSEC-RIG,2013-04-18 22:40:00,
2013-04-18 17:45:00,56.7,56.9,29.32,South,173,18.3,23.7,99,0.00,,,0.74,SSEC-RIG,2013-04-18 22:45:00,
2013-04-18 17:50:00,57.3,57.5,29.31,South,178,17.5,22.7,99,0.00,,,0.74,SSEC-RIG,2013-04-18 22:50:00,
2013-04-18 17:55:00,57.9,58.0,29.31,South,185,18.5,34.3,99,0.00,,,0.74,SSEC-RIG,2013-04-18 22:55:00,
2013-04-18 18:00:00,58.3,58.4,29.31,South,189,22.5,33.1,99,0.00,,,0.74,SSEC-RIG,2013-04-18 23:00:00,
2013-04-18 18:05:00,58.5,58.6,29.31,SSW,198,29.8,45.8,99,0.01,,,0.75,SSEC-RIG,2013-04-18 23:05:00,
2013-04-18 18:10:00,58.1,58.1,29.31,SSW,207,27.8,38.5,99,0.00,,,0.75,SSEC-RIG,2013-04-18 23:10:00,
2013-04-18 18:15:00,57.8,57.2,29.31,SSW,205,23.0,29.3,97,0.00,,,0.75,SSEC-RIG,2013-04-18 23:15:00,
2013-04-18 18:20:00,57.2,55.9,29.30,SSW,201,20.4,28.6,94,0.00,,,0.75,SSEC-RIG,2013-04-18 23:20:00,
2013-04-18 18:25:00,57.0,55.6,29.30,SSW,202,22.6,30.9,94,0.00,,,0.75,SSEC-RIG,2013-04-18 23:25:00,
2013-04-18 18:30:00,57.1,55.5,29.30,SSW,201,23.3,30.7,93,0.00,,,0.75,SSEC-RIG,2013-04-18 23:30:00,
2013-04-18 18:35:00,57.1,55.3,29.29,SSW,194,17.9,24.6,93,0.00,,,0.75,SSEC-RIG,2013-04-18 23:35:00,
2013-04-18 18:40:00,57.0,55.2,29.29,SSW,197,21.4,28.5,92,0.00,,,0.75,SSEC-RIG,2013-04-18 23:40:00,
2013-04-18 18:45:00,56.8,54.8,29.29,SSW,202,25.6,41.2,92,0.00,,,0.75,SSEC-RIG,2013-04-18 23:45:00,
2013-04-18 18:50:00,56.3,54.0,29.30,SSW,209,28.4,39.1,91,0.00,,,0.75,SSEC-RIG,2013-04-18 23:50:00,
2013-04-18 18:55:00,55.1,52.7,29.30,SW,214,28.2,41.7,91,0.00,,,0.75,SSEC-RIG,2013-04-18 23:55:00,
2013-04-18 19:00:00,53.8,51.7,29.30,SW,214,28.7,40.6,92,0.00,,,0.75,SSEC-RIG,2013-04-19 00:00:00,
2013-04-18 19:05:00,53.0,51.3,29.30,SW,219,29.5,39.7,93,0.00,,,0.00,SSEC-RIG,2013-04-19 00:05:00,
2013-04-18 19:10:00,52.2,50.8,29.31,SW,229,20.0,27.9,94,0.00,,,0.00,SSEC-RIG,2013-04-19 00:10:00,
2013-04-18 19:15:00,51.3,49.8,29.32,SW,236,24.1,35.6,94,0.00,,,0.00,SSEC-RIG,2013-04-19 00:15:00,
2013-04-18 19:20:00,50.9,48.7,29.31,SW,232,30.4,40.4,91,0.00,,,0.00,SSEC-RIG,2013-04-19 00:20:00,
2013-04-18 19:25:00,50.2,47.7,29.32,SW,230,27.4,34.7,90,0.00,,,0.00,SSEC-RIG,2013-04-19 00:25:00,
2013-04-18 19:35:00,48.7,46.6,29.33,WSW,243,18.3,26.9,91,0.00,,,0.00,SSEC-RIG,2013-04-19 00:35:00,
2013-04-18 19:40:00,48.1,45.2,29.33,WSW,246,26.0,34.6,89,0.00,,,0.00,SSEC-RIG,2013-04-19 00:40:00,
2013-04-18 19:45:00,47.5,44.5,29.33,WSW,238,25.1,33.9,88,0.00,,,0.00,SSEC-RIG,2013-04-19 00:45:00,
2013-04-18 19:50:00,46.9,43.8,29.35,WSW,248,15.2,24.2,88,0.00,,,0.00,SSEC-RIG,2013-04-19 00:50:00,
2013-04-18 19:55:00,46.5,43.1,29.35,WSW,248,27.2,40.9,87,0.00,,,0.00,SSEC-RIG,2013-04-19 00:55:00,
2013-04-18 20:00:00,46.2,42.6,29.35,WSW,240,24.8,34.4,86,0.00,,,0.00,SSEC-RIG,2013-04-19 01:00:00,
2013-04-18 20:05:00,45.8,42.2,29.35,WSW,244,25.2,33.4,86,0.00,,,0.00,SSEC-RIG,2013-04-19 01:05:00,
2013-04-18 20:10:00,45.7,41.9,29.34,WSW,240,30.2,42.2,86,0.00,,,0.00,SSEC-RIG,2013-04-19 01:10:00,
2013-04-18 20:15:00,45.5,41.2,29.35,WSW,240,31.2,43.6,84,0.00,,,0.00,SSEC-RIG,2013-04-19 01:15:00,
2013-04-18 20:20:00,45.3,41.1,29.35,WSW,239,31.6,41.0,84,0.00,,,0.00,SSEC-RIG,2013-04-19 01:20:00,
2013-04-18 20:25:00,44.8,40.6,29.37,SW,231,26.3,36.3,84,0.00,,,0.00,SSEC-RIG,2013-04-19 01:25:00,
2013-04-18 20:30:00,44.4,40.5,29.37,WSW,243,26.4,39.2,85,0.00,,,0.00,SSEC-RIG,2013-04-19 01:30:00,
2013-04-18 20:35:00,44.2,40.1,29.38,SW,232,24.2,36.4,84,0.00,,,0.00,SSEC-RIG,2013-04-19 01:35:00,
2013-04-18 20:40:00,43.8,39.7,29.38,SW,231,24.0,34.4,84,0.00,,,0.00,SSEC-RIG,2013-04-19 01:40:00,
2013-04-18 20:45:00,43.9,39.4,29.38,SW,228,29.2,35.2,83,0.00,,,0.00,SSEC-RIG,2013-04-19 01:45:00,
2013-04-18 20:50:00,43.2,38.9,29.39,SW,229,26.6,35.6,84,0.00,,,0.00,SSEC-RIG,2013-04-19 01:50:00,
2013-04-18 20:55:00,43.0,38.7,29.40,SW,235,23.6,30.2,84,0.00,,,0.00,SSEC-RIG,2013-04-19 01:55:00,
2013-04-18 21:00:00,42.6,38.2,29.40,SW,224,24.0,34.2,83,0.00,,,0.00,SSEC-RIG,2013-04-19 02:00:00,
2013-04-18 21:05:00,42.9,37.3,29.39,WSW,237,34.7,47.6,80,0.00,,,0.00,SSEC-RIG,2013-04-19 02:05:00,
2013-04-18 21:10:00,42.5,36.7,29.40,SW,234,29.5,46.5,79,0.00,,,0.00,SSEC-RIG,2013-04-19 02:10:00,
2013-04-18 21:15:00,42.4,36.4,29.40,SW,232,30.6,41.7,78,0.00,,,0.00,SSEC-RIG,2013-04-19 02:15:00,
2013-04-18 21:20:00,42.3,36.0,29.40,WSW,238,27.7,38.7,77,0.00,,,0.00,SSEC-RIG,2013-04-19 02:20:00,
2013-04-18 21:30:00,41.5,35.7,29.41,WSW,238,26.4,39.4,79,0.00,,,0.00,SSEC-RIG,2013-04-19 02:30:00,
2013-04-18 21:35:00,41.1,35.7,29.40,WSW,249,24.0,31.4,80,0.00,,,0.00,SSEC-RIG,2013-04-19 02:35:00,
2013-04-18 21:40:00,40.3,35.7,29.40,WSW,242,21.0,28.0,82,0.00,,,0.00,SSEC-RIG,2013-04-19 02:40:00,
2013-04-18 21:45:00,39.8,35.4,29.40,WSW,249,17.8,26.0,83,0.00,,,0.00,SSEC-RIG,2013-04-19 02:45:00,
2013-04-18 21:50:00,39.8,34.7,29.39,WSW,239,28.5,41.8,81,0.00,,,0.00,SSEC-RIG,2013-04-19 02:50:00,
2013-04-18 21:55:00,39.8,33.8,29.39,WSW,244,27.4,38.3,78,0.00,,,0.00,SSEC-RIG,2013-04-19 02:55:00,
2013-04-18 22:00:00,39.2,33.7,29.39,WSW,247,22.5,34.2,79,0.00,,,0.00,SSEC-RIG,2013-04-19 03:00:00,
2013-04-18 22:05:00,39.2,33.4,29.39,WSW,240,25.1,38.7,78,0.00,,,0.00,SSEC-RIG,2013-04-19 03:05:00,
2013-04-18 22:10:00,39.0,33.1,29.39,WSW,242,24.0,39.0,78,0.00,,,0.00,SSEC-RIG,2013-04-19 03:10:00,
2013-04-18 22:15:00,39.2,33.0,29.38,WSW,248,28.5,36.8,77,0.00,,,0.00,SSEC-RIG,2013-04-19 03:15:00,
2013-04-18 22:20:00,38.6,32.9,29.38,WSW,246,20.3,26.9,79,0.00,,,0.00,SSEC-RIG,2013-04-19 03:20:00,
2013-04-18 22:25:00,38.9,33.1,29.37,WSW,246,26.5,35.1,79,0.00,,,0.00,SSEC-RIG,2013-04-19 03:25:00,
2013-04-18 22:30:00,38.6,33.0,29.38,WSW,239,24.2,34.8,79,0.00,,,0.00,SSEC-RIG,2013-04-19 03:30:00,
2013-04-18 22:35:00,38.7,32.8,29.38,WSW,242,26.6,39.2,78,0.00,,,0.00,SSEC-RIG,2013-04-19 03:35:00,
2013-04-18 22:40:00,38.5,32.6,29.38,WSW,247,27.0,38.4,78,0.00,,,0.00,SSEC-RIG,2013-04-19 03:40:00,
2013-04-18 22:45:00,38.8,32.3,29.37,WSW,243,29.9,40.7,76,0.00,,,0.00,SSEC-RIG,2013-04-19 03:45:00,
2013-04-18 22:50:00,38.3,32.2,29.38,WSW,244,26.0,37.9,78,0.00,,,0.00,SSEC-RIG,2013-04-19 03:50:00,
2013-04-18 22:55:00,38.4,32.5,29.38,WSW,240,27.7,36.6,78,0.00,,,0.00,SSEC-RIG,2013-04-19 03:55:00,
2013-04-18 23:05:00,38.1,32.4,29.38,WSW,238,30.3,38.9,79,0.00,,,0.00,SSEC-RIG,2013-04-19 04:05:00,
2013-04-18 23:10:00,37.6,32.5,29.38,WSW,239,25.8,36.3,81,0.00,,,0.00,SSEC-RIG,2013-04-19 04:10:00,
2013-04-18 23:15:00,37.3,32.4,29.39,WSW,244,22.3,34.6,81,0.00,,,0.00,SSEC-RIG,2013-04-19 04:15:00,
2013-04-18 23:20:00,37.0,32.1,29.39,WSW,246,22.9,36.1,82,0.00,,,0.00,SSEC-RIG,2013-04-19 04:20:00,
2013-04-18 23:25:00,37.1,31.8,29.39,WSW,240,23.2,32.5,80,0.00,,,0.00,SSEC-RIG,2013-04-19 04:25:00,
2013-04-18 23:30:00,36.9,31.7,29.39,SW,234,21.9,32.8,80,0.00,,,0.00,SSEC-RIG,2013-04-19 04:30:00,
2013-04-18 23:35:00,36.8,31.4,29.39,WSW,244,20.8,31.8,80,0.00,,,0.00,SSEC-RIG,2013-04-19 04:35:00,
2013-04-18 23:40:00,37.0,31.1,29.38,WSW,243,24.6,35.1,78,0.00,,,0.00,SSEC-RIG,2013-04-19 04:40:00,
2013-04-18 23:50:00,36.7,30.6,29.38,WSW,238,23.2,36.0,77,0.00,,,0.00,SSEC-RIG,2013-04-19 04:50:00,
2013-04-18 23:55:00,36.4,30.5,29.37,WSW,244,21.6,28.9,78,0.00,,,0.00,SSEC-RIG,2013-04-19 04:55:00,